.
WxDataArchive / Data Records for 2009-01-17
2009-01-16 January 2009 2009-01-18

Data Records for Saturday, 17 January 2009

Time	Temp	Chill	HIndex	Humid	Dewpt	 Wind 	HiWind	WindDir	Rain 	Barom 
-----	----	-----	------	-----	-----	------	------	-------	-----	----- 
00:00	-13.0	-13.0	-13.0	72	-19.4	0	0	---	0.00	30.598 
00:05	-13.0	-13.0	-13.0	72	-19.4	0	0	---	0.00	30.594 
00:10	-13.3	-13.3	-13.3	72	-19.7	0	0	---	0.00	30.591 
00:15	-13.3	-13.3	-13.3	72	-19.7	0	0	---	0.00	30.590 
00:20	-13.5	-13.5	-13.5	72	-19.9	0	0	---	0.00	30.590 
00:25	-13.8	-13.8	-13.8	72	-20.2	0	0	---	0.00	30.590 
00:30	-13.8	-13.8	-13.8	72	-20.2	0	0	---	0.00	30.585 
00:35	-13.8	-13.8	-13.8	73	-19.9	0	0	---	0.00	30.580 
00:40	-13.8	-13.8	-13.8	73	-19.9	0	0	---	0.00	30.578 
00:45	-13.8	-13.8	-13.8	72	-20.2	0	0	---	0.00	30.578 
00:50	-14.0	-14.0	-14.0	72	-20.4	0	0	---	0.00	30.580 
00:55	-14.0	-14.0	-14.0	72	-20.4	0	0	---	0.00	30.577 
01:00	-14.0	-14.0	-14.0	72	-20.4	0	0	---	0.00	30.574 
01:05	-14.0	-14.0	-14.0	72	-20.4	0	0	---	0.00	30.572 
01:10	-14.3	-14.3	-14.3	72	-20.7	0	0	---	0.00	30.571 
01:15	-14.3	-14.3	-14.3	72	-20.7	0	0	---	0.00	30.559 
01:20	-14.3	-14.3	-14.3	72	-20.7	0	0	---	0.00	30.556 
01:25	-14.6	-14.6	-14.6	72	-21.0	0	0	---	0.00	30.556 
01:30	-14.6	-14.6	-14.6	72	-21.0	0	0	---	0.00	30.556 
01:35	-14.6	-14.6	-14.6	72	-21.0	0	0	---	0.00	30.556 
01:40	-14.6	-14.6	-14.6	72	-21.0	0	0	---	0.00	30.555 
01:45	-14.8	-14.8	-14.8	72	-21.1	0	0	---	0.00	30.555 
01:50	-14.8	-14.8	-14.8	72	-21.1	0	0	---	0.00	30.556 
01:55	-14.8	-14.8	-14.8	72	-21.1	0	0	---	0.00	30.556 
02:00	-14.8	-14.8	-14.8	72	-21.1	0	0	---	0.00	30.549 
02:05	-14.8	-14.8	-14.8	71	-21.4	0	0	---	0.00	30.543 
02:10	-14.8	-14.8	-14.8	71	-21.4	0	0	---	0.00	30.539 
02:15	-14.8	-14.8	-14.8	71	-21.4	0	0	---	0.00	30.535 
02:20	-15.1	-15.1	-15.1	71	-21.7	0	0	---	0.00	30.526 
02:25	-15.1	-15.1	-15.1	71	-21.7	0	0	---	0.00	30.525 
02:30	-14.8	-14.8	-14.8	71	-21.4	0	0	---	0.00	30.523 
02:35	-14.8	-14.8	-14.8	72	-21.1	0	0	---	0.00	30.517 
02:40	-14.8	-14.8	-14.8	72	-21.1	0	0	---	0.00	30.516 
02:45	-14.6	-14.6	-14.6	72	-21.0	0	0	---	0.00	30.514 
02:50	-14.6	-14.6	-14.6	72	-21.0	0	0	---	0.00	30.510 
02:55	-14.6	-14.6	-14.6	72	-21.0	0	0	---	0.00	30.508 
03:00	-14.3	-14.3	-14.3	72	-20.7	0	0	---	0.00	30.505 
03:05	-13.8	-13.8	-13.8	72	-20.2	0	0	---	0.00	30.505 
03:10	-13.3	-13.3	-13.3	73	-19.4	0	0	---	0.00	30.503 
03:15	-13.0	-13.0	-13.0	73	-19.1	0	0	---	0.00	30.501 
03:20	-12.5	-12.5	-12.5	74	-18.4	0	0	---	0.00	30.493 
03:25	-11.0	-11.0	-11.0	75	-16.7	0	0	---	0.00	30.490 
03:30	-9.1	-9.1	-9.1	76	-14.6	0	1	248	0.00	30.485 
03:35	-7.5	-7.5	-7.5	75	-13.3	0	1	248	0.00	30.482 
03:40	-6.1	-6.1	-6.1	74	-12.2	0	1	248	0.00	30.474 
03:45	-4.6	-4.6	-4.6	73	-11.0	0	1	248	0.00	30.469 
03:50	-3.7	-3.7	-3.7	71	-10.7	0	2	112	0.00	30.468 
03:55	-2.6	-2.6	-2.6	68	-10.5	0	2	90	0.00	30.462 
04:00	-2.0	-2.0	-2.0	65	-10.8	0	2	112	0.00	30.458 
04:05	-1.4	-1.4	-1.4	63	-10.9	1	2	90	0.00	30.458 
04:10	-1.2	-1.2	-1.2	62	-11.0	1	3	112	0.00	30.453 
04:15	-0.8	-0.8	-0.8	60	-11.3	1	4	112	0.00	30.448 
04:20	-0.4	-0.4	-0.4	58	-11.6	1	4	90	0.00	30.444 
04:25	-0.2	-0.2	-0.2	57	-11.8	1	5	90	0.00	30.442 
04:30	0.0	0.0	0.0	56	-11.9	2	3	90	0.00	30.439 
04:35	0.0	0.0	0.0	56	-11.9	1	5	90	0.00	30.435 
04:40	0.1	0.1	0.1	56	-11.8	1	3	90	0.00	30.432 
04:45	0.3	0.3	0.3	55	-12.0	1	4	90	0.00	30.421 
04:50	0.7	0.7	0.7	55	-11.6	2	5	90	0.00	30.415 
04:55	1.1	1.1	1.1	54	-11.6	2	4	90	0.00	30.414 
05:00	1.3	1.3	1.3	54	-11.4	1	3	90	0.00	30.407 
05:05	1.5	1.5	1.5	54	-11.2	2	4	90	0.00	30.409 
05:10	1.5	1.5	1.5	53	-11.6	2	4	90	0.00	30.403 
05:15	1.7	1.7	1.7	53	-11.4	2	7	112	0.00	30.401 
05:20	1.8	1.8	1.8	53	-11.3	2	5	90	0.00	30.395 
05:25	2.0	2.0	2.0	53	-11.1	3	9	90	0.00	30.387 
05:30	2.4	2.4	2.4	52	-11.2	2	5	90	0.00	30.382 
05:35	2.6	2.6	2.6	52	-11.0	2	5	90	0.00	30.379 
05:40	2.6	2.6	2.6	53	-10.6	1	4	112	0.00	30.376 
05:45	2.8	2.8	2.8	53	-10.4	1	4	90	0.00	30.376 
05:50	3.2	3.2	3.2	53	-10.0	1	5	112	0.00	30.381 
05:55	3.4	3.4	3.4	53	-9.8	1	4	90	0.00	30.376 
06:00	3.7	3.7	3.7	52	-9.9	3	7	90	0.00	30.369 
06:05	3.9	3.9	3.9	52	-9.8	2	7	112	0.00	30.371 
06:10	4.1	4.1	4.1	53	-9.2	2	6	90	0.00	30.371 
06:15	4.1	4.1	4.1	52	-9.6	2	5	112	0.00	30.359 
06:20	4.3	4.3	4.3	52	-9.4	2	6	112	0.00	30.355 
06:25	4.3	4.3	4.3	53	-9.0	3	7	90	0.00	30.349 
06:30	4.5	4.5	4.5	53	-8.8	3	6	90	0.00	30.342 
06:35	4.5	4.5	4.5	53	-8.8	2	6	112	0.00	30.341 
06:40	4.7	4.7	4.7	54	-8.2	2	6	90	0.00	30.342 
06:45	4.8	4.8	4.8	54	-8.2	2	7	112	0.00	30.342 
06:50	5.0	5.0	5.0	54	-8.0	2	6	90	0.00	30.339 
06:55	5.4	5.4	5.4	54	-7.6	2	6	90	0.00	30.334 
07:00	5.8	5.8	5.8	55	-6.8	2	5	112	0.00	30.326 
07:05	6.1	6.1	6.1	55	-6.6	2	7	90	0.00	30.325 
07:10	6.5	6.5	6.5	54	-6.6	2	6	90	0.00	30.323 
07:15	6.9	6.9	6.9	54	-6.2	3	7	90	0.00	30.309 
07:20	7.2	7.2	7.2	55	-5.5	3	10	90	0.00	30.307 
07:25	7.4	7.4	7.4	56	-5.0	2	6	90	0.00	30.300 
07:30	7.6	7.6	7.6	57	-4.4	2	5	90	0.00	30.291 
07:35	7.9	7.9	7.9	57	-4.1	2	11	90	0.00	30.286 
07:40	8.3	8.3	8.3	57	-3.8	2	11	112	0.00	30.276 
07:45	8.6	8.6	8.6	58	-3.1	2	6	90	0.00	30.277 
07:50	9.0	9.0	9.0	59	-2.4	1	3	112	0.00	30.277 
07:55	9.2	9.2	9.2	61	-1.5	2	7	112	0.00	30.274 
08:00	9.2	9.2	9.2	63	-0.8	2	10	112	0.00	30.270 
08:05	9.2	9.2	9.2	65	-0.1	2	9	90	0.00	30.267 
08:10	9.2	9.2	9.2	65	-0.1	2	11	90	0.00	30.260 
08:15	9.3	9.3	9.3	66	0.3	2	5	90	0.00	30.258 
08:20	9.3	9.3	9.3	66	0.3	2	6	90	0.00	30.252 
08:25	9.5	9.5	9.5	66	0.5	2	7	112	0.00	30.248 
08:30	9.7	9.7	9.7	65	0.3	2	7	68	0.00	30.244 
08:35	9.9	9.9	9.9	65	0.5	2	5	112	0.00	30.232 
08:40	10.0	10.0	10.0	64	0.3	1	4	90	0.00	30.229 
08:45	10.2	10.2	10.2	64	0.5	2	6	68	0.00	30.228 
08:50	10.4	10.4	10.4	63	0.3	2	9	90	0.00	30.229 
08:55	10.4	10.4	10.4	63	0.3	2	6	90	0.00	30.213 
09:00	10.5	10.5	10.5	64	0.8	2	6	90	0.00	30.209 
09:05	10.5	10.5	10.5	64	0.8	2	7	90	0.00	30.213 
09:10	10.7	10.7	10.7	63	0.6	3	10	90	0.00	30.211 
09:15	10.9	10.9	10.9	64	1.1	1	6	112	0.00	30.208 
09:20	10.9	10.9	10.9	65	1.5	2	6	90	0.00	30.204 
09:25	11.1	11.1	11.1	65	1.7	2	5	90	0.00	30.197 
09:30	11.2	11.2	11.2	65	1.8	1	5	68	0.00	30.202 
09:35	11.4	11.4	11.4	65	2.0	2	5	68	0.00	30.200 
09:40	11.6	11.6	11.6	65	2.1	2	7	90	0.00	30.198 
09:45	11.7	11.7	11.7	66	2.6	2	5	90	0.00	30.196 
09:50	11.9	11.9	11.9	66	2.8	3	13	248	0.00	30.196 
09:55	11.9	11.9	11.9	68	3.4	3	11	315	0.00	30.193 
10:00	11.9	11.9	11.9	68	3.4	2	7	45	0.00	30.182 
10:05	12.1	12.1	12.1	67	3.3	3	11	90	0.00	30.183 
10:10	12.3	12.3	12.3	67	3.5	1	3	270	0.00	30.182 
10:15	12.4	12.4	12.4	66	3.2	2	7	68	0.00	30.169 
10:20	12.6	12.6	12.6	66	3.4	3	7	90	0.00	30.166 
10:25	12.6	12.6	12.6	67	3.8	3	11	68	0.00	30.164 
10:30	12.8	12.8	12.8	67	3.9	2	9	68	0.00	30.155 
10:35	12.9	12.9	12.9	67	4.0	3	7	90	0.00	30.149 
10:40	12.9	12.9	12.9	68	4.4	3	10	90	0.00	30.142 
10:45	13.1	13.1	13.1	69	4.9	2	10	90	0.00	30.134 
10:50	13.3	13.3	13.3	69	5.1	2	6	90	0.00	30.133 
10:55	13.5	13.5	13.5	68	4.9	3	7	90	0.00	30.125 
11:00	13.8	13.8	13.8	68	5.2	2	5	112	0.00	30.116 
11:05	14.0	14.0	14.0	68	5.4	2	8	90	0.00	30.113 
11:10	14.0	14.0	14.0	66	4.8	3	8	90	0.00	30.104 
11:15	14.3	14.3	14.3	66	5.1	2	11	112	0.00	30.093 
11:20	14.4	14.4	14.4	65	4.8	3	7	90	0.00	30.086 
11:25	14.6	8.0	14.6	64	4.7	4	11	90	0.00	30.068 
11:30	14.8	14.8	14.8	63	4.5	2	6	90	0.00	30.071 
11:35	14.9	14.9	14.9	64	5.0	3	11	90	0.00	30.069 
11:40	15.1	15.1	15.1	63	4.8	3	10	90	0.00	30.063 
11:45	15.4	15.4	15.4	63	5.1	3	14	0	0.00	30.057 
11:50	15.7	15.7	15.7	62	5.0	3	11	270	0.00	30.054 
11:55	15.9	15.9	15.9	62	5.2	3	11	68	0.00	30.038 
12:00	16.2	16.2	16.2	61	5.1	3	6	68	0.00	30.037 
12:05	16.5	16.5	16.5	61	5.4	2	8	90	0.00	30.034 
12:10	16.7	16.7	16.7	61	5.6	2	9	270	0.00	30.034 
12:15	16.9	16.9	16.9	60	5.4	3	8	90	0.00	30.021 
12:20	17.0	17.0	17.0	60	5.5	3	9	90	0.00	30.016 
12:25	17.2	11.0	17.2	60	5.7	4	11	248	0.00	30.006 
12:30	17.2	11.0	17.2	61	6.1	4	17	90	0.00	29.992 
12:35	17.3	17.3	17.3	60	5.8	3	9	315	0.00	29.989 
12:40	17.7	17.7	17.7	60	6.2	3	11	45	0.00	29.985 
12:45	17.8	17.8	17.8	59	5.9	2	7	248	0.00	29.983 
12:50	18.0	18.0	18.0	58	5.7	2	6	248	0.00	29.985 
12:55	18.1	18.1	18.1	58	5.8	3	10	68	0.00	29.984 
13:00	18.9	18.9	18.9	58	6.6	2	7	248	0.00	29.977 
13:05	19.7	19.7	19.7	56	6.6	2	6	270	0.00	29.974 
13:10	19.9	19.9	19.9	55	6.4	2	9	270	0.00	29.965 
13:15	19.7	19.7	19.7	56	6.6	3	7	90	0.00	29.955 
13:20	20.2	20.2	20.2	55	6.7	3	9	248	0.00	29.947 
13:25	20.3	14.6	20.3	55	6.7	4	12	315	0.00	29.941 
13:30	20.6	20.6	20.6	55	7.0	3	11	90	0.00	29.933 
13:35	20.8	20.8	20.8	55	7.2	2	8	225	0.00	29.933 
13:40	21.0	21.0	21.0	55	7.4	3	7	248	0.00	29.933 
13:45	21.3	21.3	21.3	54	7.3	2	7	248	0.00	29.929 
13:50	21.4	21.4	21.4	55	7.8	2	6	248	0.00	29.923 
13:55	21.4	21.4	21.4	54	7.4	3	9	22	0.00	29.910 
14:00	21.3	21.3	21.3	56	8.1	2	6	248	0.00	29.906 
14:05	21.6	21.6	21.6	56	8.4	2	7	112	0.00	29.901 
14:10	21.8	21.8	21.8	56	8.5	2	7	292	0.00	29.893 
14:15	21.8	21.8	21.8	57	8.9	2	6	90	0.00	29.888 
14:20	21.9	21.9	21.9	57	9.0	2	5	248	0.00	29.886 
14:25	21.8	21.8	21.8	57	8.9	3	10	90	0.00	29.877 
14:30	21.8	21.8	21.8	57	8.9	2	7	112	0.00	29.874 
14:35	22.1	22.1	22.1	58	9.6	2	6	90	0.00	29.872 
14:40	22.2	22.2	22.2	58	9.7	2	7	248	0.00	29.874 
14:45	22.4	22.4	22.4	58	9.9	2	6	248	0.00	29.873 
14:50	22.5	22.5	22.5	58	10.0	2	12	270	0.00	29.871 
14:55	22.9	22.9	22.9	58	10.4	2	5	248	0.00	29.868 
15:00	23.2	23.2	23.2	58	10.6	2	7	248	0.00	29.857 
15:05	23.3	23.3	23.3	58	10.7	2	6	270	0.00	29.843 
15:10	23.5	23.5	23.5	59	11.3	2	10	292	0.00	29.840 
15:15	23.6	23.6	23.6	59	11.4	2	9	90	0.00	29.832 
15:20	23.6	23.6	23.6	59	11.4	3	7	112	0.00	29.833 
15:25	23.6	23.6	23.6	59	11.4	3	10	270	0.00	29.830 
15:30	23.8	23.8	23.8	59	11.6	3	7	248	0.00	29.841 
15:35	23.9	23.9	23.9	59	11.7	3	7	248	0.00	29.841 
15:40	24.1	24.1	24.1	59	11.9	2	7	225	0.00	29.828 
15:45	24.1	24.1	24.1	60	12.3	3	12	248	0.00	29.830 
15:50	24.1	24.1	24.1	60	12.3	3	12	248	0.00	29.828 
15:55	24.1	24.1	24.1	61	12.6	3	7	248	0.00	29.828 
16:00	24.2	24.2	24.2	61	12.7	2	9	248	0.00	29.823 
16:05	24.2	24.2	24.2	61	12.7	3	11	248	0.00	29.823 
16:10	24.2	24.2	24.2	61	12.7	2	10	270	0.00	29.820 
16:15	24.4	24.4	24.4	61	12.9	2	6	248	0.00	29.824 
16:20	24.5	24.5	24.5	61	13.0	2	6	248	0.00	29.824 
16:25	24.5	24.5	24.5	62	13.4	2	5	248	0.00	29.820 
16:30	24.7	24.7	24.7	62	13.6	2	7	248	0.00	29.820 
16:35	24.7	24.7	24.7	62	13.6	1	5	248	0.00	29.815 
16:40	24.7	24.7	24.7	62	13.6	2	6	248	0.00	29.819 
16:45	24.8	24.8	24.8	62	13.7	2	6	270	0.00	29.822 
16:50	24.8	24.8	24.8	63	14.0	2	7	248	0.00	29.820 
16:55	24.8	24.8	24.8	63	14.0	1	4	248	0.00	29.822 
17:00	25.0	25.0	25.0	64	14.6	1	4	248	0.00	29.815 
17:05	25.0	25.0	25.0	64	14.6	2	5	270	0.00	29.811 
17:10	25.1	25.1	25.1	64	14.7	1	4	248	0.00	29.815 
17:15	25.1	25.1	25.1	64	14.7	2	6	248	0.00	29.820 
17:20	25.3	25.3	25.3	65	15.2	1	6	248	0.00	29.813 
17:25	25.3	25.3	25.3	65	15.2	1	5	248	0.00	29.808 
17:30	25.3	25.3	25.3	65	15.2	1	7	248	0.00	29.806 
17:35	25.4	25.4	25.4	66	15.7	1	4	248	0.00	29.807 
17:40	25.4	25.4	25.4	66	15.7	1	4	68	0.00	29.806 
17:45	25.6	25.6	25.6	66	15.8	1	4	248	0.00	29.805 
17:50	25.6	25.6	25.6	67	16.2	1	4	248	0.00	29.806 
17:55	25.7	25.7	25.7	67	16.3	2	5	248	0.00	29.806 
18:00	25.8	25.8	25.8	67	16.4	1	6	248	0.00	29.804 
18:05	25.8	25.8	25.8	68	16.7	1	4	248	0.00	29.801 
18:10	26.0	26.0	26.0	68	16.9	1	5	248	0.00	29.799 
18:15	26.1	26.1	26.1	68	17.0	1	3	248	0.00	29.791 
18:20	26.1	26.1	26.1	69	17.3	1	6	248	0.00	29.790 
18:25	26.3	26.3	26.3	69	17.5	1	5	248	0.00	29.787 
18:30	26.6	26.6	26.6	69	17.8	1	5	248	0.00	29.789 
18:35	26.7	26.7	26.7	69	17.9	2	6	248	0.00	29.787 
18:40	26.9	26.9	26.9	69	18.1	2	6	248	0.00	29.786 
18:45	27.0	27.0	27.0	69	18.2	2	5	248	0.00	29.785 
18:50	27.2	27.2	27.2	69	18.4	2	5	248	0.00	29.783 
18:55	27.5	27.5	27.5	68	18.3	2	9	248	0.00	29.781 
19:00	27.8	27.8	27.8	68	18.6	3	10	270	0.00	29.778 
19:05	27.9	27.9	27.9	68	18.7	3	9	270	0.00	29.770 
19:10	27.9	27.9	27.9	68	18.7	2	6	248	0.00	29.770 
19:15	28.1	28.1	28.1	68	18.9	3	6	248	0.00	29.769 
19:20	28.4	23.9	28.4	67	18.9	4	10	270	0.00	29.768 
19:25	28.7	28.7	28.7	66	18.8	3	7	248	0.00	29.765 
19:30	29.0	24.6	29.0	66	19.1	4	9	248	0.00	29.764 
19:35	29.1	23.7	29.1	65	18.8	5	13	248	0.00	29.763 
19:40	29.3	25.0	29.3	66	19.4	4	10	248	0.00	29.764 
19:45	29.4	25.1	29.4	66	19.5	4	13	248	0.00	29.763 
19:50	29.4	24.0	29.4	66	19.5	5	12	248	0.00	29.762 
19:55	29.4	25.1	29.4	67	19.8	4	13	248	0.00	29.762 
20:00	29.4	24.0	29.4	68	20.2	5	15	270	0.00	29.762 
20:05	29.4	24.0	29.4	69	20.5	5	12	270	0.00	29.762 
20:10	29.3	22.2	29.3	73	21.7	7	14	270	0.00	29.762 
20:15	28.8	21.6	28.8	75	21.9	7	16	270	0.00	29.760 
20:20	28.8	23.3	28.8	75	21.9	5	13	270	0.00	29.761 
20:25	28.7	23.2	28.7	75	21.8	5	11	270	0.00	29.761 
20:30	28.7	23.2	28.7	75	21.8	5	16	270	0.00	29.762 
20:35	28.7	22.3	28.7	74	21.5	6	12	270	0.00	29.763 
20:40	28.7	23.2	28.7	74	21.5	5	15	270	0.00	29.763 
20:45	28.5	24.0	28.5	74	21.3	4	7	270	0.00	29.762 
20:50	28.4	23.9	28.4	75	21.5	4	10	270	0.00	29.764 
20:55	28.4	23.9	28.4	75	21.5	4	10	270	0.00	29.764 
21:00	28.2	22.6	28.2	76	21.6	5	15	270	0.00	29.765 
21:05	28.1	22.5	28.1	78	22.1	5	11	270	0.00	29.762 
21:10	27.9	23.3	27.9	79	22.2	4	10	270	0.00	29.762 
21:15	27.9	23.3	27.9	81	22.8	4	10	270	0.00	29.762 
21:20	27.8	27.8	27.8	81	22.7	3	6	270	0.00	29.762 
21:25	27.8	27.8	27.8	82	23.0	3	7	248	0.00	29.761 
21:30	27.8	22.1	27.8	82	23.0	5	10	270	0.00	29.760 
21:35	27.8	23.2	27.8	83	23.3	4	11	270	0.00	29.759 
21:40	27.6	23.0	27.6	84	23.4	4	11	270	0.00	29.758 
21:45	27.6	23.0	27.6	85	23.7	4	9	270	0.00	29.758 
21:50	27.6	27.6	27.6	86	24.0	2	10	248	0.00	29.757 
21:55	27.6	27.6	27.6	87	24.2	3	12	248	0.00	29.756 
22:00	27.6	27.6	27.6	88	24.5	2	6	270	0.00	29.754 
22:05	27.8	27.8	27.8	88	24.7	3	6	270	0.00	29.751 
22:10	27.8	27.8	27.8	89	25.0	3	10	248	0.00	29.748 
22:15	27.9	27.9	27.9	90	25.4	3	5	270	0.00	29.748 
22:20	28.1	28.1	28.1	90	25.6	3	7	248	0.00	29.748 
22:25	28.1	28.1	28.1	90	25.6	3	7	270	0.00	29.750 
22:30	27.6	23.0	27.6	89	24.8	4	9	270	0.00	29.744 
22:35	27.2	22.5	27.2	88	24.1	4	7	270	0.00	29.746 
22:40	26.4	18.7	26.4	87	23.1	7	16	270	0.00	29.749 
22:45	25.8	19.8	25.8	86	22.2	5	14	270	0.00	29.750 
22:50	25.6	19.6	25.6	86	22.0	5	11	270	0.00	29.756 
22:55	25.4	20.5	25.4	86	21.8	4	9	270	0.00	29.759 
23:00	25.3	20.3	25.3	87	22.0	4	8	270	0.00	29.762 
23:05	25.0	18.9	25.0	87	21.7	5	13	270	0.00	29.761 
23:10	25.0	18.9	25.0	87	21.7	5	12	270	0.00	29.761 
23:15	24.8	19.8	24.8	87	21.5	4	9	270	0.00	29.762 
23:20	24.8	18.6	24.8	87	21.5	5	15	270	0.00	29.762 
23:25	24.7	19.6	24.7	87	21.4	4	7	270	0.00	29.762 
23:30	24.7	24.7	24.7	87	21.4	3	11	270	0.00	29.764 
23:35	24.5	24.5	24.5	87	21.2	3	6	270	0.00	29.767 
23:40	24.4	18.1	24.4	86	20.8	5	14	270	0.00	29.767 
23:45	24.2	19.1	24.2	85	20.4	4	12	270	0.00	29.769 
23:50	24.1	24.1	24.1	85	20.3	3	9	270	0.00	29.769 
23:55	24.1	24.1	24.1	85	20.3	3	7	270	0.00	29.769 

CoCoRaHS
IN-AL-39
A2 Web Hosting
Creative Commons License
GoDaddy
search engine by freefind advanced

loaded 2018-11-16 10:42:54 • last modified 2010-11-18 10:43:29
Privacy PolicyDisclaimer
• wx.awcolley.com is powered by PmWiki v.2002016 •
• all content (unless otherwise noted) © 2018 A W Colley